sensor_id;sensor_type;location;lat;lon;timestamp;temperature;humidity
40085;DHT22;25786;51.504;7.344;2023-03-14T00:01:30;11.60;76.70
40085;DHT22;25786;51.504;7.344;2023-03-14T00:03:56;11.60;76.50
40085;DHT22;25786;51.504;7.344;2023-03-14T00:06:21;11.60;76.50
40085;DHT22;25786;51.504;7.344;2023-03-14T00:08:47;11.60;76.20
40085;DHT22;25786;51.504;7.344;2023-03-14T00:11:17;11.60;76.00
40085;DHT22;25786;51.504;7.344;2023-03-14T00:13:43;11.70;75.80
40085;DHT22;25786;51.504;7.344;2023-03-14T00:16:11;11.60;76.00
40085;DHT22;25786;51.504;7.344;2023-03-14T00:18:37;11.60;76.00
40085;DHT22;25786;51.504;7.344;2023-03-14T00:23:34;11.50;76.00
40085;DHT22;25786;51.504;7.344;2023-03-14T00:26:15;11.60;75.90
40085;DHT22;25786;51.504;7.344;2023-03-14T00:28:42;11.60;75.80
40085;DHT22;25786;51.504;7.344;2023-03-14T00:31:10;11.60;75.70
40085;DHT22;25786;51.504;7.344;2023-03-14T00:33:36;11.50;76.10
40085;DHT22;25786;51.504;7.344;2023-03-14T00:36:06;11.50;76.30
40085;DHT22;25786;51.504;7.344;2023-03-14T00:38:34;11.50;76.10
40085;DHT22;25786;51.504;7.344;2023-03-14T00:41:02;11.50;76.10
40085;DHT22;25786;51.504;7.344;2023-03-14T00:43:28;11.50;75.90
40085;DHT22;25786;51.504;7.344;2023-03-14T00:45:53;11.50;76.00
40085;DHT22;25786;51.504;7.344;2023-03-14T00:48:19;11.70;75.30
40085;DHT22;25786;51.504;7.344;2023-03-14T00:50:45;11.80;74.90
40085;DHT22;25786;51.504;7.344;2023-03-14T00:53:11;11.80;75.10
40085;DHT22;25786;51.504;7.344;2023-03-14T00:55:37;11.80;74.80
40085;DHT22;25786;51.504;7.344;2023-03-14T00:58:03;11.80;74.70
40085;DHT22;25786;51.504;7.344;2023-03-14T01:00:28;11.80;74.80
40085;DHT22;25786;51.504;7.344;2023-03-14T01:02:54;11.80;74.90
40085;DHT22;25786;51.504;7.344;2023-03-14T01:05:21;11.80;74.90
40085;DHT22;25786;51.504;7.344;2023-03-14T01:07:46;11.80;74.60
40085;DHT22;25786;51.504;7.344;2023-03-14T01:10:12;11.90;76.50
40085;DHT22;25786;51.504;7.344;2023-03-14T01:12:37;11.70;79.70
40085;DHT22;25786;51.504;7.344;2023-03-14T01:15:03;11.30;79.50
40085;DHT22;25786;51.504;7.344;2023-03-14T01:17:28;10.80;81.20
40085;DHT22;25786;51.504;7.344;2023-03-14T01:19:54;10.50;82.80
40085;DHT22;25786;51.504;7.344;2023-03-14T01:22:19;10.20;84.00
40085;DHT22;25786;51.504;7.344;2023-03-14T01:24:46;10.00;84.10
40085;DHT22;25786;51.504;7.344;2023-03-14T01:27:12;9.80;85.40
40085;DHT22;25786;51.504;7.344;2023-03-14T01:29:38;9.70;86.00
40085;DHT22;25786;51.504;7.344;2023-03-14T01:32:03;9.60;86.70
40085;DHT22;25786;51.504;7.344;2023-03-14T01:34:29;9.60;86.70
40085;DHT22;25786;51.504;7.344;2023-03-14T01:36:54;9.60;86.90
40085;DHT22;25786;51.504;7.344;2023-03-14T01:39:20;9.70;87.50
40085;DHT22;25786;51.504;7.344;2023-03-14T01:41:45;9.70;87.20
40085;DHT22;25786;51.504;7.344;2023-03-14T01:44:11;9.80;87.40
40085;DHT22;25786;51.504;7.344;2023-03-14T01:46:43;9.80;87.60
40085;DHT22;25786;51.504;7.344;2023-03-14T01:56:40;9.70;87.90
40085;DHT22;25786;51.504;7.344;2023-03-14T01:59:07;9.70;88.20
40085;DHT22;25786;51.504;7.344;2023-03-14T02:01:33;9.60;88.30
40085;DHT22;25786;51.504;7.344;2023-03-14T02:04:00;9.60;87.90
40085;DHT22;25786;51.504;7.344;2023-03-14T02:06:29;9.70;88.10
40085;DHT22;25786;51.504;7.344;2023-03-14T02:08:56;9.70;88.30
40085;DHT22;25786;51.504;7.344;2023-03-14T02:11:22;9.70;88.30
40085;DHT22;25786;51.504;7.344;2023-03-14T02:13:51;9.70;88.50
40085;DHT22;25786;51.504;7.344;2023-03-14T02:16:17;9.70;88.50
40085;DHT22;25786;51.504;7.344;2023-03-14T02:18:42;9.60;88.80
40085;DHT22;25786;51.504;7.344;2023-03-14T02:26:06;9.70;87.80
40085;DHT22;25786;51.504;7.344;2023-03-14T02:28:33;9.80;87.50
40085;DHT22;25786;51.504;7.344;2023-03-14T02:30:59;9.70;87.60
40085;DHT22;25786;51.504;7.344;2023-03-14T02:33:24;9.70;87.30
40085;DHT22;25786;51.504;7.344;2023-03-14T02:35:51;9.80;87.20
40085;DHT22;25786;51.504;7.344;2023-03-14T02:40:56;9.70;86.90
40085;DHT22;25786;51.504;7.344;2023-03-14T02:43:21;9.80;87.00
40085;DHT22;25786;51.504;7.344;2023-03-14T02:45:48;9.80;87.00
40085;DHT22;25786;51.504;7.344;2023-03-14T02:50:45;9.80;87.00
40085;DHT22;25786;51.504;7.344;2023-03-14T02:53:12;9.80;86.90
40085;DHT22;25786;51.504;7.344;2023-03-14T02:55:37;9.80;87.10
40085;DHT22;25786;51.504;7.344;2023-03-14T02:58:03;9.80;87.20
40085;DHT22;25786;51.504;7.344;2023-03-14T03:00:28;9.80;87.20
40085;DHT22;25786;51.504;7.344;2023-03-14T03:02:55;9.90;87.20
40085;DHT22;25786;51.504;7.344;2023-03-14T03:05:21;9.90;87.10
40085;DHT22;25786;51.504;7.344;2023-03-14T03:07:46;9.90;87.00
40085;DHT22;25786;51.504;7.344;2023-03-14T03:10:12;9.90;86.90
40085;DHT22;25786;51.504;7.344;2023-03-14T03:12:37;9.80;87.10
40085;DHT22;25786;51.504;7.344;2023-03-14T03:15:03;9.80;87.00
40085;DHT22;25786;51.504;7.344;2023-03-14T03:17:28;9.90;86.70
40085;DHT22;25786;51.504;7.344;2023-03-14T03:19:54;9.80;86.60
40085;DHT22;25786;51.504;7.344;2023-03-14T03:22:19;9.80;86.80
40085;DHT22;25786;51.504;7.344;2023-03-14T03:24:45;9.80;86.50
40085;DHT22;25786;51.504;7.344;2023-03-14T03:27:10;9.80;86.60
40085;DHT22;25786;51.504;7.344;2023-03-14T03:29:36;9.80;86.50
40085;DHT22;25786;51.504;7.344;2023-03-14T03:32:01;9.80;86.40
40085;DHT22;25786;51.504;7.344;2023-03-14T03:34:27;9.80;86.40
40085;DHT22;25786;51.504;7.344;2023-03-14T03:36:55;9.90;85.90
40085;DHT22;25786;51.504;7.344;2023-03-14T03:39:20;9.80;85.70
40085;DHT22;25786;51.504;7.344;2023-03-14T03:41:46;9.80;85.90
40085;DHT22;25786;51.504;7.344;2023-03-14T03:44:11;9.90;85.60
40085;DHT22;25786;51.504;7.344;2023-03-14T03:46:37;9.90;85.80
40085;DHT22;25786;51.504;7.344;2023-03-14T03:49:03;9.90;85.60
40085;DHT22;25786;51.504;7.344;2023-03-14T03:51:29;9.80;85.50
40085;DHT22;25786;51.504;7.344;2023-03-14T03:53:55;9.80;85.30
40085;DHT22;25786;51.504;7.344;2023-03-14T03:56:21;9.90;85.70
40085;DHT22;25786;51.504;7.344;2023-03-14T03:58:46;9.90;85.30
40085;DHT22;25786;51.504;7.344;2023-03-14T04:01:12;9.80;85.40
40085;DHT22;25786;51.504;7.344;2023-03-14T04:03:37;9.90;85.40
40085;DHT22;25786;51.504;7.344;2023-03-14T04:06:06;9.90;85.40
40085;DHT22;25786;51.504;7.344;2023-03-14T04:08:32;9.90;86.10
40085;DHT22;25786;51.504;7.344;2023-03-14T04:10:58;9.90;86.40
40085;DHT22;25786;51.504;7.344;2023-03-14T04:13:24;9.80;86.70
40085;DHT22;25786;51.504;7.344;2023-03-14T04:15:50;9.80;86.90
40085;DHT22;25786;51.504;7.344;2023-03-14T04:18:15;9.80;86.70
40085;DHT22;25786;51.504;7.344;2023-03-14T04:20:41;9.80;86.60
40085;DHT22;25786;51.504;7.344;2023-03-14T04:23:06;9.70;86.70
40085;DHT22;25786;51.504;7.344;2023-03-14T04:25:32;9.70;86.30
40085;DHT22;25786;51.504;7.344;2023-03-14T04:27:57;9.70;86.10
40085;DHT22;25786;51.504;7.344;2023-03-14T04:30:23;9.80;86.20
40085;DHT22;25786;51.504;7.344;2023-03-14T04:32:48;9.80;85.60
40085;DHT22;25786;51.504;7.344;2023-03-14T04:35:14;9.80;85.60
40085;DHT22;25786;51.504;7.344;2023-03-14T04:37:39;9.70;86.10
40085;DHT22;25786;51.504;7.344;2023-03-14T04:40:07;9.70;85.70
40085;DHT22;25786;51.504;7.344;2023-03-14T04:42:32;9.60;85.50
40085;DHT22;25786;51.504;7.344;2023-03-14T04:44:58;9.60;85.80
40085;DHT22;25786;51.504;7.344;2023-03-14T04:47:24;9.60;86.00
40085;DHT22;25786;51.504;7.344;2023-03-14T04:49:49;9.40;86.20
40085;DHT22;25786;51.504;7.344;2023-03-14T04:52:15;9.30;86.90
40085;DHT22;25786;51.504;7.344;2023-03-14T04:54:40;9.30;87.70
40085;DHT22;25786;51.504;7.344;2023-03-14T04:57:05;9.10;88.30
40085;DHT22;25786;51.504;7.344;2023-03-14T04:59:31;9.10;88.70
40085;DHT22;25786;51.504;7.344;2023-03-14T05:01:56;9.10;88.90
40085;DHT22;25786;51.504;7.344;2023-03-14T05:04:22;9.10;89.20
40085;DHT22;25786;51.504;7.344;2023-03-14T05:06:47;9.10;89.30
40085;DHT22;25786;51.504;7.344;2023-03-14T05:09:13;9.00;89.60
40085;DHT22;25786;51.504;7.344;2023-03-14T05:11:38;9.00;90.20
40085;DHT22;25786;51.504;7.344;2023-03-14T05:14:04;9.00;89.70
40085;DHT22;25786;51.504;7.344;2023-03-14T05:16:29;8.90;89.30
40085;DHT22;25786;51.504;7.344;2023-03-14T05:18:54;8.90;89.20
40085;DHT22;25786;51.504;7.344;2023-03-14T05:21:20;8.80;89.30
40085;DHT22;25786;51.504;7.344;2023-03-14T05:23:45;8.70;89.50
40085;DHT22;25786;51.504;7.344;2023-03-14T05:26:11;8.70;89.70
40085;DHT22;25786;51.504;7.344;2023-03-14T05:28:36;8.70;90.00
40085;DHT22;25786;51.504;7.344;2023-03-14T05:31:05;8.60;90.00
40085;DHT22;25786;51.504;7.344;2023-03-14T05:33:31;8.60;90.60
40085;DHT22;25786;51.504;7.344;2023-03-14T05:35:56;8.60;90.40
40085;DHT22;25786;51.504;7.344;2023-03-14T05:38:22;8.60;90.50
40085;DHT22;25786;51.504;7.344;2023-03-14T05:40:47;8.60;90.40
40085;DHT22;25786;51.504;7.344;2023-03-14T05:43:13;8.60;90.70
40085;DHT22;25786;51.504;7.344;2023-03-14T05:45:38;8.60;91.00
40085;DHT22;25786;51.504;7.344;2023-03-14T05:48:04;8.60;90.90
40085;DHT22;25786;51.504;7.344;2023-03-14T05:50:30;8.60;91.00
40085;DHT22;25786;51.504;7.344;2023-03-14T05:52:55;8.60;91.20
40085;DHT22;25786;51.504;7.344;2023-03-14T05:55:20;8.60;91.20
40085;DHT22;25786;51.504;7.344;2023-03-14T05:57:46;8.60;91.20
40085;DHT22;25786;51.504;7.344;2023-03-14T06:00:12;8.70;91.50
40085;DHT22;25786;51.504;7.344;2023-03-14T06:02:37;8.80;91.50
40085;DHT22;25786;51.504;7.344;2023-03-14T06:05:03;8.80;91.30
40085;DHT22;25786;51.504;7.344;2023-03-14T06:07:29;8.80;91.30
40085;DHT22;25786;51.504;7.344;2023-03-14T06:09:55;9.00;91.40
40085;DHT22;25786;51.504;7.344;2023-03-14T06:12:20;9.00;91.20
40085;DHT22;25786;51.504;7.344;2023-03-14T06:14:45;8.90;91.20
40085;DHT22;25786;51.504;7.344;2023-03-14T06:17:11;9.00;91.10
40085;DHT22;25786;51.504;7.344;2023-03-14T06:19:36;9.10;91.50
40085;DHT22;25786;51.504;7.344;2023-03-14T06:22:02;9.10;91.20
40085;DHT22;25786;51.504;7.344;2023-03-14T06:24:27;9.10;91.10
40085;DHT22;25786;51.504;7.344;2023-03-14T06:26:53;9.10;91.10
40085;DHT22;25786;51.504;7.344;2023-03-14T06:29:18;9.20;91.40
40085;DHT22;25786;51.504;7.344;2023-03-14T06:31:44;9.10;91.40
40085;DHT22;25786;51.504;7.344;2023-03-14T06:34:09;9.20;91.40
40085;DHT22;25786;51.504;7.344;2023-03-14T06:36:35;9.30;91.60
40085;DHT22;25786;51.504;7.344;2023-03-14T06:39:00;9.30;91.60
40085;DHT22;25786;51.504;7.344;2023-03-14T06:41:25;9.30;91.50
40085;DHT22;25786;51.504;7.344;2023-03-14T06:43:52;9.30;91.60
40085;DHT22;25786;51.504;7.344;2023-03-14T06:46:17;9.30;91.50
40085;DHT22;25786;51.504;7.344;2023-03-14T06:48:43;9.30;91.50
40085;DHT22;25786;51.504;7.344;2023-03-14T06:51:08;9.30;91.70
40085;DHT22;25786;51.504;7.344;2023-03-14T06:53:34;9.40;91.70
40085;DHT22;25786;51.504;7.344;2023-03-14T06:55:59;9.40;91.70
40085;DHT22;25786;51.504;7.344;2023-03-14T06:58:25;9.50;91.60
40085;DHT22;25786;51.504;7.344;2023-03-14T07:00:52;9.60;91.20
40085;DHT22;25786;51.504;7.344;2023-03-14T07:03:17;9.60;91.20
40085;DHT22;25786;51.504;7.344;2023-03-14T07:05:43;9.60;91.20
40085;DHT22;25786;51.504;7.344;2023-03-14T07:08:08;9.60;91.20
40085;DHT22;25786;51.504;7.344;2023-03-14T07:10:34;9.60;91.10
40085;DHT22;25786;51.504;7.344;2023-03-14T07:12:59;9.60;91.20
40085;DHT22;25786;51.504;7.344;2023-03-14T07:15:25;9.60;91.20
40085;DHT22;25786;51.504;7.344;2023-03-14T07:17:50;9.60;91.20
40085;DHT22;25786;51.504;7.344;2023-03-14T07:20:16;9.50;91.20
40085;DHT22;25786;51.504;7.344;2023-03-14T07:22:41;9.60;91.20
40085;DHT22;25786;51.504;7.344;2023-03-14T07:25:07;9.60;91.30
40085;DHT22;25786;51.504;7.344;2023-03-14T07:27:34;9.70;91.50
40085;DHT22;25786;51.504;7.344;2023-03-14T07:30:00;9.70;91.00
40085;DHT22;25786;51.504;7.344;2023-03-14T07:32:25;9.70;91.10
40085;DHT22;25786;51.504;7.344;2023-03-14T07:34:50;9.80;90.90
40085;DHT22;25786;51.504;7.344;2023-03-14T07:37:16;9.80;91.00
40085;DHT22;25786;51.504;7.344;2023-03-14T07:39:41;9.90;91.20
40085;DHT22;25786;51.504;7.344;2023-03-14T07:42:07;9.90;90.70
40085;DHT22;25786;51.504;7.344;2023-03-14T07:44:32;10.00;90.70
40085;DHT22;25786;51.504;7.344;2023-03-14T07:46:58;10.00;90.30
40085;DHT22;25786;51.504;7.344;2023-03-14T07:49:23;10.10;90.10
40085;DHT22;25786;51.504;7.344;2023-03-14T07:51:49;10.10;90.00
40085;DHT22;25786;51.504;7.344;2023-03-14T07:54:14;10.00;89.80
40085;DHT22;25786;51.504;7.344;2023-03-14T07:56:40;10.00;90.00
40085;DHT22;25786;51.504;7.344;2023-03-14T07:59:05;10.00;90.10
40085;DHT22;25786;51.504;7.344;2023-03-14T08:01:31;10.00;90.20
40085;DHT22;25786;51.504;7.344;2023-03-14T08:03:56;10.10;90.30
40085;DHT22;25786;51.504;7.344;2023-03-14T08:06:22;10.10;90.10
40085;DHT22;25786;51.504;7.344;2023-03-14T08:08:47;10.10;90.20
40085;DHT22;25786;51.504;7.344;2023-03-14T08:11:13;10.10;90.50
40085;DHT22;25786;51.504;7.344;2023-03-14T08:13:38;10.10;90.50
40085;DHT22;25786;51.504;7.344;2023-03-14T08:16:05;10.10;90.70
40085;DHT22;25786;51.504;7.344;2023-03-14T08:18:30;10.00;90.70
40085;DHT22;25786;51.504;7.344;2023-03-14T08:20:56;10.00;90.90
40085;DHT22;25786;51.504;7.344;2023-03-14T08:23:21;10.00;90.80
40085;DHT22;25786;51.504;7.344;2023-03-14T08:25:50;10.00;91.10
40085;DHT22;25786;51.504;7.344;2023-03-14T08:28:16;10.10;91.00
40085;DHT22;25786;51.504;7.344;2023-03-14T08:30:41;10.00;91.20
40085;DHT22;25786;51.504;7.344;2023-03-14T08:33:07;10.00;91.30
40085;DHT22;25786;51.504;7.344;2023-03-14T08:35:33;10.10;91.40
40085;DHT22;25786;51.504;7.344;2023-03-14T08:37:58;10.20;91.60
40085;DHT22;25786;51.504;7.344;2023-03-14T08:40:24;10.20;91.40
40085;DHT22;25786;51.504;7.344;2023-03-14T08:42:49;10.20;91.40
40085;DHT22;25786;51.504;7.344;2023-03-14T08:45:15;10.20;91.60
40085;DHT22;25786;51.504;7.344;2023-03-14T08:47:42;10.20;91.50
40085;DHT22;25786;51.504;7.344;2023-03-14T08:50:08;10.10;91.80
40085;DHT22;25786;51.504;7.344;2023-03-14T08:52:34;10.20;91.80
40085;DHT22;25786;51.504;7.344;2023-03-14T08:54:59;10.20;91.50
40085;DHT22;25786;51.504;7.344;2023-03-14T08:57:25;10.20;91.50
40085;DHT22;25786;51.504;7.344;2023-03-14T08:59:53;10.20;91.50
40085;DHT22;25786;51.504;7.344;2023-03-14T09:02:19;10.30;91.60
40085;DHT22;25786;51.504;7.344;2023-03-14T09:04:44;10.50;91.40
40085;DHT22;25786;51.504;7.344;2023-03-14T09:07:10;10.60;90.70
40085;DHT22;25786;51.504;7.344;2023-03-14T09:09:36;10.70;90.70
40085;DHT22;25786;51.504;7.344;2023-03-14T09:12:01;10.70;90.40
40085;DHT22;25786;51.504;7.344;2023-03-14T09:14:27;10.80;90.20
40085;DHT22;25786;51.504;7.344;2023-03-14T09:16:52;10.70;90.40
40085;DHT22;25786;51.504;7.344;2023-03-14T09:19:18;10.60;90.50
40085;DHT22;25786;51.504;7.344;2023-03-14T09:21:43;10.50;91.00
40085;DHT22;25786;51.504;7.344;2023-03-14T09:24:09;10.50;91.30
40085;DHT22;25786;51.504;7.344;2023-03-14T09:26:34;10.50;91.10
40085;DHT22;25786;51.504;7.344;2023-03-14T09:29:00;10.50;90.90
40085;DHT22;25786;51.504;7.344;2023-03-14T09:31:25;10.40;90.90
40085;DHT22;25786;51.504;7.344;2023-03-14T09:33:51;10.40;91.00
40085;DHT22;25786;51.504;7.344;2023-03-14T09:36:16;10.30;91.20
40085;DHT22;25786;51.504;7.344;2023-03-14T09:38:42;10.30;90.90
40085;DHT22;25786;51.504;7.344;2023-03-14T09:41:12;10.20;90.90
40085;DHT22;25786;51.504;7.344;2023-03-14T09:43:39;10.20;90.50
40085;DHT22;25786;51.504;7.344;2023-03-14T09:46:05;10.20;90.70
40085;DHT22;25786;51.504;7.344;2023-03-14T09:48:32;10.10;90.80
40085;DHT22;25786;51.504;7.344;2023-03-14T09:50:58;10.10;90.40
40085;DHT22;25786;51.504;7.344;2023-03-14T09:53:44;10.00;88.70
40085;DHT22;25786;51.504;7.344;2023-03-14T09:56:11;9.80;87.20
40085;DHT22;25786;51.504;7.344;2023-03-14T09:58:37;9.60;86.80
40085;DHT22;25786;51.504;7.344;2023-03-14T10:01:03;9.60;86.50
40085;DHT22;25786;51.504;7.344;2023-03-14T10:03:30;9.40;86.30
40085;DHT22;25786;51.504;7.344;2023-03-14T10:05:56;9.30;86.70
40085;DHT22;25786;51.504;7.344;2023-03-14T10:08:22;9.30;88.00
40085;DHT22;25786;51.504;7.344;2023-03-14T10:10:47;9.30;87.80
40085;DHT22;25786;51.504;7.344;2023-03-14T10:15:38;9.20;88.20
40085;DHT22;25786;51.504;7.344;2023-03-14T10:18:05;9.10;87.90
40085;DHT22;25786;51.504;7.344;2023-03-14T10:20:38;9.10;87.80
40085;DHT22;25786;51.504;7.344;2023-03-14T10:23:05;9.10;87.90
40085;DHT22;25786;51.504;7.344;2023-03-14T10:25:35;9.10;87.60
40085;DHT22;25786;51.504;7.344;2023-03-14T10:28:01;9.00;88.00
40085;DHT22;25786;51.504;7.344;2023-03-14T10:30:43;8.80;86.90
40085;DHT22;25786;51.504;7.344;2023-03-14T10:35:52;8.80;88.00
40085;DHT22;25786;51.504;7.344;2023-03-14T10:38:18;8.60;88.00
40085;DHT22;25786;51.504;7.344;2023-03-14T10:40:47;8.40;88.60
40085;DHT22;25786;51.504;7.344;2023-03-14T10:43:18;8.30;88.90
40085;DHT22;25786;51.504;7.344;2023-03-14T10:45:50;8.20;89.80
40085;DHT22;25786;51.504;7.344;2023-03-14T10:48:20;8.40;90.40
40085;DHT22;25786;51.504;7.344;2023-03-14T10:50:53;8.50;90.10
40085;DHT22;25786;51.504;7.344;2023-03-14T10:53:19;8.40;89.90
40085;DHT22;25786;51.504;7.344;2023-03-14T10:55:45;8.40;89.40
40085;DHT22;25786;51.504;7.344;2023-03-14T10:58:17;8.40;88.80
40085;DHT22;25786;51.504;7.344;2023-03-14T11:00:43;8.30;89.20
40085;DHT22;25786;51.504;7.344;2023-03-14T11:03:10;8.40;88.90
40085;DHT22;25786;51.504;7.344;2023-03-14T11:05:41;8.20;86.70
40085;DHT22;25786;51.504;7.344;2023-03-14T11:08:19;8.10;86.40
40085;DHT22;25786;51.504;7.344;2023-03-14T11:10:46;8.00;85.70
40085;DHT22;25786;51.504;7.344;2023-03-14T11:26:18;7.80;85.60
40085;DHT22;25786;51.504;7.344;2023-03-14T11:28:49;7.70;83.20
40085;DHT22;25786;51.504;7.344;2023-03-14T11:31:48;7.40;83.10
40085;DHT22;25786;51.504;7.344;2023-03-14T11:34:24;7.10;84.60
40085;DHT22;25786;51.504;7.344;2023-03-14T11:36:52;7.20;83.80
40085;DHT22;25786;51.504;7.344;2023-03-14T11:39:18;7.30;83.50
40085;DHT22;25786;51.504;7.344;2023-03-14T11:41:49;7.50;81.80
40085;DHT22;25786;51.504;7.344;2023-03-14T11:44:22;7.40;81.80
40085;DHT22;25786;51.504;7.344;2023-03-14T11:52:03;7.20;81.20
40085;DHT22;25786;51.504;7.344;2023-03-14T11:54:34;7.20;80.90
40085;DHT22;25786;51.504;7.344;2023-03-14T11:57:05;7.10;81.20
40085;DHT22;25786;51.504;7.344;2023-03-14T11:59:45;7.00;81.70
40085;DHT22;25786;51.504;7.344;2023-03-14T12:02:34;7.00;82.30
40085;DHT22;25786;51.504;7.344;2023-03-14T12:07:47;6.90;80.80
40085;DHT22;25786;51.504;7.344;2023-03-14T12:10:19;6.80;81.10
40085;DHT22;25786;51.504;7.344;2023-03-14T12:12:44;6.80;81.30
40085;DHT22;25786;51.504;7.344;2023-03-14T12:15:17;6.80;81.40
40085;DHT22;25786;51.504;7.344;2023-03-14T12:17:43;6.90;81.10
40085;DHT22;25786;51.504;7.344;2023-03-14T12:22:42;7.00;81.70
40085;DHT22;25786;51.504;7.344;2023-03-14T12:30:14;6.90;79.60
40085;DHT22;25786;51.504;7.344;2023-03-14T12:32:40;6.90;80.40
40085;DHT22;25786;51.504;7.344;2023-03-14T12:37:50;7.30;79.90
40085;DHT22;25786;51.504;7.344;2023-03-14T12:42:58;7.70;78.70
40085;DHT22;25786;51.504;7.344;2023-03-14T12:45:31;7.80;80.80
40085;DHT22;25786;51.504;7.344;2023-03-14T12:48:01;8.00;80.70
40085;DHT22;25786;51.504;7.344;2023-03-14T12:50:33;8.10;79.30
40085;DHT22;25786;51.504;7.344;2023-03-14T12:58:33;8.00;77.30
40085;DHT22;25786;51.504;7.344;2023-03-14T13:01:01;8.10;78.70
40085;DHT22;25786;51.504;7.344;2023-03-14T13:03:36;8.00;78.90
40085;DHT22;25786;51.504;7.344;2023-03-14T13:06:02;8.10;79.70
40085;DHT22;25786;51.504;7.344;2023-03-14T13:08:36;7.80;80.60
40085;DHT22;25786;51.504;7.344;2023-03-14T13:11:04;7.50;80.20
40085;DHT22;25786;51.504;7.344;2023-03-14T13:13:30;7.10;80.90
40085;DHT22;25786;51.504;7.344;2023-03-14T13:15:59;6.90;82.30
40085;DHT22;25786;51.504;7.344;2023-03-14T13:18:42;6.80;83.50
40085;DHT22;25786;51.504;7.344;2023-03-14T13:21:12;6.70;84.20
40085;DHT22;25786;51.504;7.344;2023-03-14T13:23:38;6.80;85.40
40085;DHT22;25786;51.504;7.344;2023-03-14T13:26:06;7.00;85.90
40085;DHT22;25786;51.504;7.344;2023-03-14T13:28:34;7.10;84.70
40085;DHT22;25786;51.504;7.344;2023-03-14T13:31:02;7.10;84.60
40085;DHT22;25786;51.504;7.344;2023-03-14T13:33:28;7.00;84.20
40085;DHT22;25786;51.504;7.344;2023-03-14T13:35:54;7.10;83.40
40085;DHT22;25786;51.504;7.344;2023-03-14T13:38:21;7.10;83.70
40085;DHT22;25786;51.504;7.344;2023-03-14T13:40:48;7.30;82.20
40085;DHT22;25786;51.504;7.344;2023-03-14T13:43:16;7.20;79.00
40085;DHT22;25786;51.504;7.344;2023-03-14T13:46:24;7.00;80.10
40085;DHT22;25786;51.504;7.344;2023-03-14T13:48:35;6.80;79.30
40085;DHT22;25786;51.504;7.344;2023-03-14T13:51:05;6.50;80.10
40085;DHT22;25786;51.504;7.344;2023-03-14T13:56:11;6.40;81.60
40085;DHT22;25786;51.504;7.344;2023-03-14T13:58:37;6.60;81.80
40085;DHT22;25786;51.504;7.344;2023-03-14T14:03:51;6.80;81.60
40085;DHT22;25786;51.504;7.344;2023-03-14T14:06:37;7.00;82.30
40085;DHT22;25786;51.504;7.344;2023-03-14T14:12:00;7.30;81.60
40085;DHT22;25786;51.504;7.344;2023-03-14T14:20:07;7.80;81.50
40085;DHT22;25786;51.504;7.344;2023-03-14T14:25:44;7.90;80.60
40085;DHT22;25786;51.504;7.344;2023-03-14T14:34:05;8.00;74.80
40085;DHT22;25786;51.504;7.344;2023-03-14T14:36:39;8.00;76.30
40085;DHT22;25786;51.504;7.344;2023-03-14T14:39:09;8.00;74.50
40085;DHT22;25786;51.504;7.344;2023-03-14T14:41:39;8.10;74.50
40085;DHT22;25786;51.504;7.344;2023-03-14T14:44:16;8.20;73.60
40085;DHT22;25786;51.504;7.344;2023-03-14T14:46:42;8.30;71.10
40085;DHT22;25786;51.504;7.344;2023-03-14T14:49:12;8.10;66.30
40085;DHT22;25786;51.504;7.344;2023-03-14T14:51:42;8.10;64.00
40085;DHT22;25786;51.504;7.344;2023-03-14T14:54:19;8.00;61.10
40085;DHT22;25786;51.504;7.344;2023-03-14T14:56:52;7.90;62.70
40085;DHT22;25786;51.504;7.344;2023-03-14T14:59:30;8.00;60.90
40085;DHT22;25786;51.504;7.344;2023-03-14T15:02:23;7.90;65.10
40085;DHT22;25786;51.504;7.344;2023-03-14T15:04:54;8.00;61.50
40085;DHT22;25786;51.504;7.344;2023-03-14T15:07:22;8.10;60.00
40085;DHT22;25786;51.504;7.344;2023-03-14T15:09:54;8.00;62.00
40085;DHT22;25786;51.504;7.344;2023-03-14T15:12:25;8.10;62.20
40085;DHT22;25786;51.504;7.344;2023-03-14T15:14:51;8.10;58.80
40085;DHT22;25786;51.504;7.344;2023-03-14T15:17:24;8.20;60.70
40085;DHT22;25786;51.504;7.344;2023-03-14T15:19:50;8.10;57.60
40085;DHT22;25786;51.504;7.344;2023-03-14T15:22:18;8.00;59.50
40085;DHT22;25786;51.504;7.344;2023-03-14T15:24:54;8.00;57.90
40085;DHT22;25786;51.504;7.344;2023-03-14T15:27:19;8.10;56.90
40085;DHT22;25786;51.504;7.344;2023-03-14T15:29:47;8.00;60.50
40085;DHT22;25786;51.504;7.344;2023-03-14T15:32:18;7.90;59.60
40085;DHT22;25786;51.504;7.344;2023-03-14T15:34:44;7.90;58.80
40085;DHT22;25786;51.504;7.344;2023-03-14T15:37:15;7.90;58.90
40085;DHT22;25786;51.504;7.344;2023-03-14T15:39:44;7.80;57.80
40085;DHT22;25786;51.504;7.344;2023-03-14T15:42:10;7.80;57.60
40085;DHT22;25786;51.504;7.344;2023-03-14T15:44:38;7.70;57.80
40085;DHT22;25786;51.504;7.344;2023-03-14T15:47:08;7.60;56.30
40085;DHT22;25786;51.504;7.344;2023-03-14T15:49:38;7.50;55.70
40085;DHT22;25786;51.504;7.344;2023-03-14T15:52:03;7.30;55.70
40085;DHT22;25786;51.504;7.344;2023-03-14T15:54:50;7.10;55.10
40085;DHT22;25786;51.504;7.344;2023-03-14T15:57:25;7.10;58.70
40085;DHT22;25786;51.504;7.344;2023-03-14T15:59:50;7.20;56.10
40085;DHT22;25786;51.504;7.344;2023-03-14T16:02:16;7.30;54.80
40085;DHT22;25786;51.504;7.344;2023-03-14T16:04:41;7.30;56.00
40085;DHT22;25786;51.504;7.344;2023-03-14T16:07:07;7.40;56.50
40085;DHT22;25786;51.504;7.344;2023-03-14T16:09:32;7.40;57.40
40085;DHT22;25786;51.504;7.344;2023-03-14T16:11:58;7.50;56.60
40085;DHT22;25786;51.504;7.344;2023-03-14T16:14:24;7.50;57.00
40085;DHT22;25786;51.504;7.344;2023-03-14T16:16:51;7.50;57.70
40085;DHT22;25786;51.504;7.344;2023-03-14T16:19:27;7.40;52.80
40085;DHT22;25786;51.504;7.344;2023-03-14T16:22:00;7.30;51.20
40085;DHT22;25786;51.504;7.344;2023-03-14T16:24:26;7.30;49.40
40085;DHT22;25786;51.504;7.344;2023-03-14T16:26:53;7.30;52.30
40085;DHT22;25786;51.504;7.344;2023-03-14T16:29:19;7.10;49.60
40085;DHT22;25786;51.504;7.344;2023-03-14T16:31:44;7.00;47.50
40085;DHT22;25786;51.504;7.344;2023-03-14T16:34:10;7.00;47.40
40085;DHT22;25786;51.504;7.344;2023-03-14T16:36:35;7.00;47.70
40085;DHT22;25786;51.504;7.344;2023-03-14T16:39:01;7.00;47.00
40085;DHT22;25786;51.504;7.344;2023-03-14T16:41:26;6.90;47.70
40085;DHT22;25786;51.504;7.344;2023-03-14T16:43:56;6.80;47.80
40085;DHT22;25786;51.504;7.344;2023-03-14T16:46:21;6.80;48.90
40085;DHT22;25786;51.504;7.344;2023-03-14T16:48:49;6.80;49.70
40085;DHT22;25786;51.504;7.344;2023-03-14T16:51:14;6.80;51.30
40085;DHT22;25786;51.504;7.344;2023-03-14T16:53:40;6.70;52.40
40085;DHT22;25786;51.504;7.344;2023-03-14T16:56:06;6.70;51.20
40085;DHT22;25786;51.504;7.344;2023-03-14T16:58:32;6.80;50.30
40085;DHT22;25786;51.504;7.344;2023-03-14T17:00:57;6.80;51.30
40085;DHT22;25786;51.504;7.344;2023-03-14T17:03:23;6.80;50.80
40085;DHT22;25786;51.504;7.344;2023-03-14T17:05:50;6.70;54.20
40085;DHT22;25786;51.504;7.344;2023-03-14T17:08:16;6.80;51.50
40085;DHT22;25786;51.504;7.344;2023-03-14T17:10:41;6.80;50.90